sensor_id;sensor_type;location;lat;lon;timestamp;pressure;altitude;pressure_sealevel;temperature;humidity
15487;BME280;7845;53.698;10.078;2024-02-14T00:00:18;101248.84;;;7.24;79.58
15487;BME280;7845;53.698;10.078;2024-02-14T00:02:44;101248.84;;;7.24;78.96
15487;BME280;7845;53.698;10.078;2024-02-14T00:05:10;101241.19;;;7.21;79.24
15487;BME280;7845;53.698;10.078;2024-02-14T00:07:39;101246.41;;;7.21;79.08
15487;BME280;7845;53.698;10.078;2024-02-14T00:10:08;101243.03;;;7.19;78.39
15487;BME280;7845;53.698;10.078;2024-02-14T00:12:35;101238.03;;;7.15;78.61
15487;BME280;7845;53.698;10.078;2024-02-14T00:15:02;101173.97;;;6.73;78.71
15487;BME280;7845;53.698;10.078;2024-02-14T00:17:28;101237.72;;;7.03;78.50
15487;BME280;7845;53.698;10.078;2024-02-14T00:19:53;101214.16;;;6.88;79.12
15487;BME280;7845;53.698;10.078;2024-02-14T00:22:18;101239.09;;;6.93;79.27
15487;BME280;7845;53.698;10.078;2024-02-14T00:24:44;101238.47;;;6.88;78.53
15487;BME280;7845;53.698;10.078;2024-02-14T00:27:09;101236.69;;;6.89;78.68
15487;BME280;7845;53.698;10.078;2024-02-14T00:29:34;101236.94;;;6.84;79.03
15487;BME280;7845;53.698;10.078;2024-02-14T00:32:00;101227.56;;;6.80;78.63
15487;BME280;7845;53.698;10.078;2024-02-14T00:34:26;101229.38;;;6.78;78.76
15487;BME280;7845;53.698;10.078;2024-02-14T00:36:51;101229.47;;;6.77;79.48
15487;BME280;7845;53.698;10.078;2024-02-14T00:39:17;101230.31;;;6.77;79.39
15487;BME280;7845;53.698;10.078;2024-02-14T00:41:42;101221.66;;;6.77;79.08
15487;BME280;7845;53.698;10.078;2024-02-14T00:44:07;101229.38;;;6.78;79.08
15487;BME280;7845;53.698;10.078;2024-02-14T00:46:32;101216.31;;;6.78;78.85
15487;BME280;7845;53.698;10.078;2024-02-14T00:48:58;101219.72;;;6.80;79.21
15487;BME280;7845;53.698;10.078;2024-02-14T00:51:24;101214.41;;;6.82;79.02
15487;BME280;7845;53.698;10.078;2024-02-14T00:53:51;101210.00;;;6.84;79.55
15487;BME280;7845;53.698;10.078;2024-02-14T00:56:16;101215.22;;;6.84;79.35
15487;BME280;7845;53.698;10.078;2024-02-14T00:58:43;101166.19;;;6.54;79.28
15487;BME280;7845;53.698;10.078;2024-02-14T01:01:08;101215.75;;;6.90;79.33
15487;BME280;7845;53.698;10.078;2024-02-14T01:03:33;101148.84;;;6.53;78.58
15487;BME280;7845;53.698;10.078;2024-02-14T01:05:58;101205.16;;;6.93;79.00
15487;BME280;7845;53.698;10.078;2024-02-14T01:08:24;101205.00;;;6.96;78.10
15487;BME280;7845;53.698;10.078;2024-02-14T01:10:49;101218.16;;;6.95;78.44
15487;BME280;7845;53.698;10.078;2024-02-14T01:13:16;101200.69;;;6.95;78.56
15487;BME280;7845;53.698;10.078;2024-02-14T01:15:42;101197.25;;;6.95;77.88
15487;BME280;7845;53.698;10.078;2024-02-14T01:18:07;101206.59;;;6.99;78.36
15487;BME280;7845;53.698;10.078;2024-02-14T01:20:33;101196.09;;;7.00;77.83
15487;BME280;7845;53.698;10.078;2024-02-14T01:22:58;101200.41;;;7.01;77.54
15487;BME280;7845;53.698;10.078;2024-02-14T01:25:25;101200.94;;;7.08;78.80
15487;BME280;7845;53.698;10.078;2024-02-14T01:27:50;101188.75;;;7.09;78.29
15487;BME280;7845;53.698;10.078;2024-02-14T01:30:17;101192.03;;;7.12;78.16
15487;BME280;7845;53.698;10.078;2024-02-14T01:32:43;101182.34;;;7.14;78.47
15487;BME280;7845;53.698;10.078;2024-02-14T01:35:08;101180.44;;;7.18;78.49
15487;BME280;7845;53.698;10.078;2024-02-14T01:37:34;101179.41;;;7.20;78.78
15487;BME280;7845;53.698;10.078;2024-02-14T01:40:00;101152.41;;;7.04;78.60
15487;BME280;7845;53.698;10.078;2024-02-14T01:42:25;101172.22;;;7.25;78.95
15487;BME280;7845;53.698;10.078;2024-02-14T01:44:52;101180.03;;;7.25;78.86
15487;BME280;7845;53.698;10.078;2024-02-14T01:47:19;101171.47;;;7.23;78.32
15487;BME280;7845;53.698;10.078;2024-02-14T01:49:45;101130.38;;;6.92;78.84
15487;BME280;7845;53.698;10.078;2024-02-14T01:52:11;101174.13;;;7.22;79.55
15487;BME280;7845;53.698;10.078;2024-02-14T01:54:36;101165.44;;;7.21;79.34
15487;BME280;7845;53.698;10.078;2024-02-14T01:57:02;101169.66;;;7.24;80.10
15487;BME280;7845;53.698;10.078;2024-02-14T01:59:28;101101.91;;;6.88;79.68
15487;BME280;7845;53.698;10.078;2024-02-14T02:01:53;101162.00;;;7.21;79.57
15487;BME280;7845;53.698;10.078;2024-02-14T02:04:19;101162.94;;;7.20;80.14
15487;BME280;7845;53.698;10.078;2024-02-14T02:06:44;101157.63;;;7.21;80.72
15487;BME280;7845;53.698;10.078;2024-02-14T02:09:09;101106.97;;;6.91;80.29
15487;BME280;7845;53.698;10.078;2024-02-14T02:11:51;101147.19;;;7.21;80.11
15487;BME280;7845;53.698;10.078;2024-02-14T02:14:19;101104.38;;;6.91;80.27
15487;BME280;7845;53.698;10.078;2024-02-14T02:16:45;101144.56;;;7.21;81.02
15487;BME280;7845;53.698;10.078;2024-02-14T02:19:11;101098.47;;;6.87;80.79
15487;BME280;7845;53.698;10.078;2024-02-14T02:21:36;101095.00;;;6.87;80.78
15487;BME280;7845;53.698;10.078;2024-02-14T02:24:02;101146.59;;;7.16;81.06
15487;BME280;7845;53.698;10.078;2024-02-14T02:26:28;101147.50;;;7.15;81.28
15487;BME280;7845;53.698;10.078;2024-02-14T02:28:53;101136.13;;;7.16;80.85
15487;BME280;7845;53.698;10.078;2024-02-14T02:31:19;101135.28;;;7.16;80.89
15487;BME280;7845;53.698;10.078;2024-02-14T02:33:45;101124.31;;;7.09;81.36
15487;BME280;7845;53.698;10.078;2024-02-14T02:36:10;101126.84;;;7.11;81.27
15487;BME280;7845;53.698;10.078;2024-02-14T02:38:36;101072.81;;;6.78;81.67
15487;BME280;7845;53.698;10.078;2024-02-14T02:41:02;101121.84;;;7.06;82.09
15487;BME280;7845;53.698;10.078;2024-02-14T02:43:28;101115.94;;;7.02;82.29
15487;BME280;7845;53.698;10.078;2024-02-14T02:45:53;101119.31;;;7.04;81.70
15487;BME280;7845;53.698;10.078;2024-02-14T02:48:19;101117.56;;;7.05;82.05
15487;BME280;7845;53.698;10.078;2024-02-14T02:50:48;101116.88;;;7.01;82.37
15487;BME280;7845;53.698;10.078;2024-02-14T02:53:14;101020.28;;;6.51;82.43
15487;BME280;7845;53.698;10.078;2024-02-14T02:55:40;101108.09;;;7.02;82.24
15487;BME280;7845;53.698;10.078;2024-02-14T02:58:05;101103.66;;;7.04;82.07
15487;BME280;7845;53.698;10.078;2024-02-14T03:00:31;101101.06;;;7.04;81.89
15487;BME280;7845;53.698;10.078;2024-02-14T03:02:57;101088.06;;;7.03;82.20
15487;BME280;7845;53.698;10.078;2024-02-14T03:05:22;101080.16;;;7.04;82.21
15487;BME280;7845;53.698;10.078;2024-02-14T03:07:48;101082.09;;;7.01;82.22
15487;BME280;7845;53.698;10.078;2024-02-14T03:10:15;101055.56;;;6.76;82.35
15487;BME280;7845;53.698;10.078;2024-02-14T03:12:45;101094.38;;;6.99;82.21
15487;BME280;7845;53.698;10.078;2024-02-14T03:15:10;101096.22;;;6.97;82.96
15487;BME280;7845;53.698;10.078;2024-02-14T03:17:36;101093.59;;;6.97;82.39
15487;BME280;7845;53.698;10.078;2024-02-14T03:20:01;101091.00;;;6.97;82.73
15487;BME280;7845;53.698;10.078;2024-02-14T03:22:27;101091.06;;;6.95;82.73
15487;BME280;7845;53.698;10.078;2024-02-14T03:24:55;101089.25;;;6.97;83.38
15487;BME280;7845;53.698;10.078;2024-02-14T03:27:20;101092.69;;;6.98;82.68
15487;BME280;7845;53.698;10.078;2024-02-14T03:29:48;101088.31;;;6.98;83.46
15487;BME280;7845;53.698;10.078;2024-02-14T03:32:16;101082.25;;;6.98;83.11
15487;BME280;7845;53.698;10.078;2024-02-14T03:34:41;101083.25;;;6.95;82.99
15487;BME280;7845;53.698;10.078;2024-02-14T03:37:06;101078.88;;;6.96;83.54
15487;BME280;7845;53.698;10.078;2024-02-14T03:39:32;101074.59;;;6.95;83.67
15487;BME280;7845;53.698;10.078;2024-02-14T03:41:57;101009.38;;;6.61;83.60
15487;BME280;7845;53.698;10.078;2024-02-14T03:44:26;101065.91;;;6.94;83.87
15487;BME280;7845;53.698;10.078;2024-02-14T03:46:51;101067.56;;;6.95;83.92
15487;BME280;7845;53.698;10.078;2024-02-14T03:49:16;101059.75;;;6.95;83.85
15487;BME280;7845;53.698;10.078;2024-02-14T03:51:42;101057.91;;;6.97;84.11
15487;BME280;7845;53.698;10.078;2024-02-14T03:54:07;101058.84;;;6.96;83.49
15487;BME280;7845;53.698;10.078;2024-02-14T03:56:32;101058.16;;;6.93;84.46
15487;BME280;7845;53.698;10.078;2024-02-14T03:59:00;101051.22;;;6.92;84.40
15487;BME280;7845;53.698;10.078;2024-02-14T04:01:26;101054.78;;;6.91;84.06
15487;BME280;7845;53.698;10.078;2024-02-14T04:03:52;101042.75;;;6.88;84.72
15487;BME280;7845;53.698;10.078;2024-02-14T04:06:17;101048.78;;;6.89;84.14
15487;BME280;7845;53.698;10.078;2024-02-14T04:08:43;101041.81;;;6.89;84.36
15487;BME280;7845;53.698;10.078;2024-02-14T04:11:08;101025.16;;;6.75;83.89
15487;BME280;7845;53.698;10.078;2024-02-14T04:13:33;100979.63;;;6.47;83.74
15487;BME280;7845;53.698;10.078;2024-02-14T04:15:59;101046.28;;;6.87;84.17
15487;BME280;7845;53.698;10.078;2024-02-14T04:18:24;101040.13;;;6.88;84.75
15487;BME280;7845;53.698;10.078;2024-02-14T04:20:49;101033.97;;;6.89;84.07
15487;BME280;7845;53.698;10.078;2024-02-14T04:23:14;101024.78;;;6.82;85.01
15487;BME280;7845;53.698;10.078;2024-02-14T04:25:40;101024.72;;;6.84;85.33
15487;BME280;7845;53.698;10.078;2024-02-14T04:28:06;101027.91;;;6.89;84.99
15487;BME280;7845;53.698;10.078;2024-02-14T04:30:31;101028.31;;;6.81;85.49
15487;BME280;7845;53.698;10.078;2024-02-14T04:32:57;101027.22;;;6.85;84.57
15487;BME280;7845;53.698;10.078;2024-02-14T04:35:22;101023.53;;;6.89;84.73
15487;BME280;7845;53.698;10.078;2024-02-14T04:37:47;101029.94;;;6.84;85.39
15487;BME280;7845;53.698;10.078;2024-02-14T04:40:14;101015.97;;;6.85;85.60
15487;BME280;7845;53.698;10.078;2024-02-14T04:42:40;100947.50;;;6.47;85.29
15487;BME280;7845;53.698;10.078;2024-02-14T04:45:06;101014.94;;;6.87;84.57
15487;BME280;7845;53.698;10.078;2024-02-14T04:47:32;100922.75;;;6.38;85.06
15487;BME280;7845;53.698;10.078;2024-02-14T04:49:57;100945.19;;;6.41;85.56
15487;BME280;7845;53.698;10.078;2024-02-14T04:52:23;101010.75;;;6.85;85.36
15487;BME280;7845;53.698;10.078;2024-02-14T04:54:48;100994.06;;;6.87;85.76
15487;BME280;7845;53.698;10.078;2024-02-14T04:57:14;100995.09;;;6.85;85.49
15487;BME280;7845;53.698;10.078;2024-02-14T04:59:40;101002.97;;;6.83;85.44
15487;BME280;7845;53.698;10.078;2024-02-14T05:02:05;101007.97;;;6.88;85.48
15487;BME280;7845;53.698;10.078;2024-02-14T05:04:31;101000.91;;;6.90;85.91
15487;BME280;7845;53.698;10.078;2024-02-14T05:06:56;101003.66;;;6.87;85.62
15487;BME280;7845;53.698;10.078;2024-02-14T05:09:22;101000.91;;;6.90;85.24
15487;BME280;7845;53.698;10.078;2024-02-14T05:11:47;100999.19;;;6.89;85.70
15487;BME280;7845;53.698;10.078;2024-02-14T05:14:12;100987.84;;;6.90;85.83
15487;BME280;7845;53.698;10.078;2024-02-14T05:16:38;100987.94;;;6.88;85.99
15487;BME280;7845;53.698;10.078;2024-02-14T05:19:03;100988.00;;;6.87;86.36
15487;BME280;7845;53.698;10.078;2024-02-14T05:21:28;100982.78;;;6.87;86.37
15487;BME280;7845;53.698;10.078;2024-02-14T05:23:54;100992.31;;;6.88;86.69
15487;BME280;7845;53.698;10.078;2024-02-14T05:26:19;100978.47;;;6.86;86.30
15487;BME280;7845;53.698;10.078;2024-02-14T05:28:44;100980.13;;;6.88;86.31
15487;BME280;7845;53.698;10.078;2024-02-14T05:31:10;100982.47;;;6.93;85.82
15487;BME280;7845;53.698;10.078;2024-02-14T05:33:35;100978.31;;;6.89;86.93
15487;BME280;7845;53.698;10.078;2024-02-14T05:36:00;100925.16;;;6.59;86.60
15487;BME280;7845;53.698;10.078;2024-02-14T05:38:26;100981.38;;;6.97;86.47
15487;BME280;7845;53.698;10.078;2024-02-14T05:40:52;100971.78;;;6.97;86.40
15487;BME280;7845;53.698;10.078;2024-02-14T05:43:17;100971.69;;;6.99;86.31
15487;BME280;7845;53.698;10.078;2024-02-14T05:45:43;100966.72;;;6.94;86.66
15487;BME280;7845;53.698;10.078;2024-02-14T05:48:08;100968.84;;;6.88;87.31
15487;BME280;7845;53.698;10.078;2024-02-14T05:50:34;100965.22;;;6.90;86.62
15487;BME280;7845;53.698;10.078;2024-02-14T05:52:59;100970.25;;;6.93;87.03
15487;BME280;7845;53.698;10.078;2024-02-14T05:55:25;100967.41;;;6.98;86.60
15487;BME280;7845;53.698;10.078;2024-02-14T05:57:51;100971.78;;;6.97;86.87
15487;BME280;7845;53.698;10.078;2024-02-14T06:00:21;100972.03;;;6.93;87.64
15487;BME280;7845;53.698;10.078;2024-02-14T06:02:47;100971.69;;;6.99;87.21
15487;BME280;7845;53.698;10.078;2024-02-14T06:05:13;100965.47;;;7.01;86.70
15487;BME280;7845;53.698;10.078;2024-02-14T06:07:39;100952.50;;;7.00;86.85
15487;BME280;7845;53.698;10.078;2024-02-14T06:10:06;100964.47;;;7.04;87.52
15487;BME280;7845;53.698;10.078;2024-02-14T06:12:32;100960.34;;;7.00;87.00
15487;BME280;7845;53.698;10.078;2024-02-14T06:14:57;100954.59;;;6.93;87.41
15487;BME280;7845;53.698;10.078;2024-02-14T06:17:23;100955.09;;;7.00;87.50
15487;BME280;7845;53.698;10.078;2024-02-14T06:19:48;100947.97;;;7.03;87.22
15487;BME280;7845;53.698;10.078;2024-02-14T06:22:13;100950.41;;;7.06;87.14
15487;BME280;7845;53.698;10.078;2024-02-14T06:24:38;100948.81;;;7.04;87.03
15487;BME280;7845;53.698;10.078;2024-02-14T06:27:04;100947.72;;;7.08;87.77
15487;BME280;7845;53.698;10.078;2024-02-14T06:29:29;100943.66;;;7.02;87.38
15487;BME280;7845;53.698;10.078;2024-02-14T06:31:55;100942.66;;;7.05;87.99
15487;BME280;7845;53.698;10.078;2024-02-14T06:34:20;100942.06;;;7.00;88.02
15487;BME280;7845;53.698;10.078;2024-02-14T06:36:48;100945.19;;;7.06;87.86
15487;BME280;7845;53.698;10.078;2024-02-14T06:39:13;100945.19;;;7.06;87.83
15487;BME280;7845;53.698;10.078;2024-02-14T06:41:39;100941.66;;;7.07;87.51
15487;BME280;7845;53.698;10.078;2024-02-14T06:44:05;100953.63;;;7.12;88.03
15487;BME280;7845;53.698;10.078;2024-02-14T06:46:30;100950.00;;;7.14;87.88
15487;BME280;7845;53.698;10.078;2024-02-14T06:48:56;100948.47;;;7.10;88.03
15487;BME280;7845;53.698;10.078;2024-02-14T06:51:22;100952.53;;;7.16;87.61
15487;BME280;7845;53.698;10.078;2024-02-14T06:53:48;100947.31;;;7.16;88.16
15487;BME280;7845;53.698;10.078;2024-02-14T06:56:14;100951.44;;;7.20;87.98
15487;BME280;7845;53.698;10.078;2024-02-14T06:58:39;100953.94;;;7.21;87.31
15487;BME280;7845;53.698;10.078;2024-02-14T07:01:05;100953.88;;;7.23;88.19
15487;BME280;7845;53.698;10.078;2024-02-14T07:03:30;100958.09;;;7.25;87.49
15487;BME280;7845;53.698;10.078;2024-02-14T07:05:55;100953.63;;;7.27;88.18
15487;BME280;7845;53.698;10.078;2024-02-14T07:08:20;100945.72;;;7.29;87.39
15487;BME280;7845;53.698;10.078;2024-02-14T07:10:46;100952.34;;;7.34;88.00
15487;BME280;7845;53.698;10.078;2024-02-14T07:13:11;100949.84;;;7.33;87.50
15487;BME280;7845;53.698;10.078;2024-02-14T07:15:37;100952.34;;;7.34;88.14
15487;BME280;7845;53.698;10.078;2024-02-14T07:18:02;100956.81;;;7.32;87.38
15487;BME280;7845;53.698;10.078;2024-02-14T07:20:28;100951.94;;;7.42;87.90
15487;BME280;7845;53.698;10.078;2024-02-14T07:22:55;100944.03;;;7.43;87.50
15487;BME280;7845;53.698;10.078;2024-02-14T07:25:21;100950.09;;;7.44;88.34
15487;BME280;7845;53.698;10.078;2024-02-14T07:27:47;100952.72;;;7.44;87.61
15487;BME280;7845;53.698;10.078;2024-02-14T07:30:15;100958.31;;;7.52;87.58
15487;BME280;7845;53.698;10.078;2024-02-14T07:32:40;100956.38;;;7.55;87.39
15487;BME280;7845;53.698;10.078;2024-02-14T07:35:06;100955.66;;;7.53;87.29
15487;BME280;7845;53.698;10.078;2024-02-14T07:37:31;100952.25;;;7.51;87.75
15487;BME280;7845;53.698;10.078;2024-02-14T07:39:57;100954.72;;;7.54;88.17
15487;BME280;7845;53.698;10.078;2024-02-14T07:42:22;100950.06;;;7.60;87.54
15487;BME280;7845;53.698;10.078;2024-02-14T07:44:47;100949.31;;;7.57;87.92
15487;BME280;7845;53.698;10.078;2024-02-14T07:47:13;100944.16;;;7.56;88.20
15487;BME280;7845;53.698;10.078;2024-02-14T07:49:39;100951.16;;;7.55;87.80
15487;BME280;7845;53.698;10.078;2024-02-14T07:52:05;100943.00;;;7.62;88.19
15487;BME280;7845;53.698;10.078;2024-02-14T07:54:30;100939.38;;;7.64;88.09
15487;BME280;7845;53.698;10.078;2024-02-14T07:56:56;100944.59;;;7.64;88.02
15487;BME280;7845;53.698;10.078;2024-02-14T07:59:21;100925.88;;;7.56;87.73
15487;BME280;7845;53.698;10.078;2024-02-14T08:01:46;100942.66;;;7.68;87.83
15487;BME280;7845;53.698;10.078;2024-02-14T08:04:11;100938.00;;;7.73;88.14
15487;BME280;7845;53.698;10.078;2024-02-14T08:06:37;100937.72;;;7.77;88.22
15487;BME280;7845;53.698;10.078;2024-02-14T08:09:02;100938.47;;;7.79;87.60
15487;BME280;7845;53.698;10.078;2024-02-14T08:11:31;100921.22;;;7.77;87.68
15487;BME280;7845;53.698;10.078;2024-02-14T08:13:57;100937.06;;;7.89;87.52
15487;BME280;7845;53.698;10.078;2024-02-14T08:16:23;100847.03;;;7.34;87.44
15487;BME280;7845;53.698;10.078;2024-02-14T08:18:48;100939.72;;;8.03;87.02
15487;BME280;7845;53.698;10.078;2024-02-14T08:21:16;100939.34;;;8.10;87.36
15487;BME280;7845;53.698;10.078;2024-02-14T08:23:41;100935.53;;;8.15;86.84
15487;BME280;7845;53.698;10.078;2024-02-14T08:26:07;100937.47;;;8.12;86.79
15487;BME280;7845;53.698;10.078;2024-02-14T08:28:36;100918.78;;;8.03;87.38
15487;BME280;7845;53.698;10.078;2024-02-14T08:31:01;100930.22;;;8.17;87.33
15487;BME280;7845;53.698;10.078;2024-02-14T08:33:26;100935.25;;;8.20;86.94
15487;BME280;7845;53.698;10.078;2024-02-14T08:35:52;100930.22;;;8.17;86.89
15487;BME280;7845;53.698;10.078;2024-02-14T08:38:19;100935.66;;;8.28;87.00
15487;BME280;7845;53.698;10.078;2024-02-14T08:40:45;100935.81;;;8.25;87.06
15487;BME280;7845;53.698;10.078;2024-02-14T08:43:10;100942.59;;;8.29;87.12
15487;BME280;7845;53.698;10.078;2024-02-14T08:45:36;100934.72;;;8.29;86.87
15487;BME280;7845;53.698;10.078;2024-02-14T08:48:02;100946.63;;;8.34;87.02
15487;BME280;7845;53.698;10.078;2024-02-14T08:50:28;100948.03;;;8.40;86.77
15487;BME280;7845;53.698;10.078;2024-02-14T08:52:55;100944.09;;;8.47;86.44
15487;BME280;7845;53.698;10.078;2024-02-14T08:55:20;100940.13;;;8.55;86.55
15487;BME280;7845;53.698;10.078;2024-02-14T08:57:46;100945.91;;;8.61;86.86
15487;BME280;7845;53.698;10.078;2024-02-14T09:00:13;100949.28;;;8.63;86.78
15487;BME280;7845;53.698;10.078;2024-02-14T09:02:40;100939.53;;;8.65;86.61
15487;BME280;7845;53.698;10.078;2024-02-14T09:05:06;100935.44;;;8.61;86.03
15487;BME280;7845;53.698;10.078;2024-02-14T09:07:31;100948.31;;;8.64;86.31
15487;BME280;7845;53.698;10.078;2024-02-14T09:09:59;100953.38;;;8.67;86.40
15487;BME280;7845;53.698;10.078;2024-02-14T09:12:24;100955.06;;;8.68;86.34
15487;BME280;7845;53.698;10.078;2024-02-14T09:14:49;100952.81;;;8.76;86.70
15487;BME280;7845;53.698;10.078;2024-02-14T09:17:15;100947.22;;;8.82;86.52
15487;BME280;7845;53.698;10.078;2024-02-14T09:19:40;100950.22;;;8.90;86.44
15487;BME280;7845;53.698;10.078;2024-02-14T09:22:06;100950.66;;;8.96;86.03
15487;BME280;7845;53.698;10.078;2024-02-14T09:24:32;100923.84;;;8.79;86.19
15487;BME280;7845;53.698;10.078;2024-02-14T09:26:57;100956.16;;;9.06;86.14
15487;BME280;7845;53.698;10.078;2024-02-14T09:29:23;100947.19;;;9.10;85.92
15487;BME280;7845;53.698;10.078;2024-02-14T09:31:50;100944.38;;;9.13;85.87
15487;BME280;7845;53.698;10.078;2024-02-14T09:34:16;100910.00;;;8.91;85.74
15487;BME280;7845;53.698;10.078;2024-02-14T09:36:43;100953.44;;;9.22;85.67
15487;BME280;7845;53.698;10.078;2024-02-14T09:39:09;100941.00;;;9.25;85.40
15487;BME280;7845;53.698;10.078;2024-02-14T09:41:37;100941.19;;;9.22;85.53
15487;BME280;7845;53.698;10.078;2024-02-14T09:44:05;100939.88;;;9.29;85.41
15487;BME280;7845;53.698;10.078;2024-02-14T09:46:31;100948.56;;;9.30;85.75
15487;BME280;7845;53.698;10.078;2024-02-14T09:48:58;100944.06;;;9.32;85.93
15487;BME280;7845;53.698;10.078;2024-02-14T09:51:25;100954.06;;;9.39;86.05
15487;BME280;7845;53.698;10.078;2024-02-14T09:53:50;100955.56;;;9.43;86.17
15487;BME280;7845;53.698;10.078;2024-02-14T09:56:16;100944.56;;;9.51;85.90
15487;BME280;7845;53.698;10.078;2024-02-14T09:58:45;100947.00;;;9.54;86.11
15487;BME280;7845;53.698;10.078;2024-02-14T10:01:14;100949.78;;;9.65;86.15
15487;BME280;7845;53.698;10.078;2024-02-14T10:03:40;100846.31;;;9.04;85.27
15487;BME280;7845;53.698;10.078;2024-02-14T10:06:05;100945.28;;;9.67;85.43
15487;BME280;7845;53.698;10.078;2024-02-14T10:08:30;100951.25;;;9.69;85.45
15487;BME280;7845;53.698;10.078;2024-02-14T10:10:57;100958.91;;;9.72;85.78
15487;BME280;7845;53.698;10.078;2024-02-14T10:13:26;100956.84;;;9.77;86.11
15487;BME280;7845;53.698;10.078;2024-02-14T10:15:51;100968.19;;;9.78;85.47
15487;BME280;7845;53.698;10.078;2024-02-14T10:18:17;100958.53;;;9.78;86.19
15487;BME280;7845;53.698;10.078;2024-02-14T10:20:53;100962.94;;;9.78;86.69
15487;BME280;7845;53.698;10.078;2024-02-14T10:23:18;100968.63;;;9.84;86.54
15487;BME280;7845;53.698;10.078;2024-02-14T10:25:45;100965.94;;;9.98;86.44
15487;BME280;7845;53.698;10.078;2024-02-14T10:28:10;100962.69;;;10.07;86.32
15487;BME280;7845;53.698;10.078;2024-02-14T10:30:36;100969.03;;;10.18;86.04
15487;BME280;7845;53.698;10.078;2024-02-14T10:33:03;100970.44;;;10.23;85.68
15487;BME280;7845;53.698;10.078;2024-02-14T10:35:30;100968.13;;;10.31;86.07
15487;BME280;7845;53.698;10.078;2024-02-14T10:37:58;100977.19;;;10.40;85.78
15487;BME280;7845;53.698;10.078;2024-02-14T10:40:27;100970.66;;;10.45;85.43
15487;BME280;7845;53.698;10.078;2024-02-14T10:42:53;100975.81;;;10.47;86.70
15487;BME280;7845;53.698;10.078;2024-02-14T10:45:19;100973.09;;;10.61;86.39
15487;BME280;7845;53.698;10.078;2024-02-14T10:47:45;100974.38;;;10.68;85.70
15487;BME280;7845;53.698;10.078;2024-02-14T10:50:14;100972.16;;;10.62;86.16
15487;BME280;7845;53.698;10.078;2024-02-14T10:52:41;100982.03;;;10.71;85.74
15487;BME280;7845;53.698;10.078;2024-02-14T10:55:07;100915.97;;;10.39;85.56
15487;BME280;7845;53.698;10.078;2024-02-14T10:57:34;100977.50;;;10.86;86.24
15487;BME280;7845;53.698;10.078;2024-02-14T11:00:02;100975.53;;;10.89;85.81
15487;BME280;7845;53.698;10.078;2024-02-14T11:02:28;100972.13;;;10.87;85.62
15487;BME280;7845;53.698;10.078;2024-02-14T11:04:56;100975.91;;;10.83;85.98
15487;BME280;7845;53.698;10.078;2024-02-14T11:07:21;100975.75;;;10.86;85.81
15487;BME280;7845;53.698;10.078;2024-02-14T11:10:06;100978.16;;;10.89;86.13
15487;BME280;7845;53.698;10.078;2024-02-14T11:12:35;100968.03;;;10.83;86.55
15487;BME280;7845;53.698;10.078;2024-02-14T11:15:19;100979.63;;;10.93;86.63
15487;BME280;7845;53.698;10.078;2024-02-14T11:17:44;100977.06;;;11.04;86.43
15487;BME280;7845;53.698;10.078;2024-02-14T11:20:20;100977.28;;;11.14;85.71
15487;BME280;7845;53.698;10.078;2024-02-14T11:22:57;100979.56;;;11.19;85.73
15487;BME280;7845;53.698;10.078;2024-02-14T11:25:29;100978.84;;;11.17;86.70
15487;BME280;7845;53.698;10.078;2024-02-14T11:27:57;100955.41;;;11.01;86.99
15487;BME280;7845;53.698;10.078;2024-02-14T11:30:34;100978.13;;;11.15;86.53
15487;BME280;7845;53.698;10.078;2024-02-14T11:33:18;100986.81;;;11.15;86.99
15487;BME280;7845;53.698;10.078;2024-02-14T11:35:46;100936.66;;;10.69;87.08
15487;BME280;7845;53.698;10.078;2024-02-14T11:38:13;100985.06;;;11.03;87.10
15487;BME280;7845;53.698;10.078;2024-02-14T11:40:39;100970.13;;;10.91;87.57
15487;BME280;7845;53.698;10.078;2024-02-14T11:43:11;100934.78;;;10.71;87.08
15487;BME280;7845;53.698;10.078;2024-02-14T11:45:37;100982.66;;;11.00;87.84
15487;BME280;7845;53.698;10.078;2024-02-14T11:48:05;100996.28;;;11.05;87.28
15487;BME280;7845;53.698;10.078;2024-02-14T11:50:31;100984.94;;;11.04;87.01
15487;BME280;7845;53.698;10.078;2024-02-14T11:52:56;100986.84;;;11.02;87.54
15487;BME280;7845;53.698;10.078;2024-02-14T11:55:29;100982.31;;;11.04;87.48
15487;BME280;7845;53.698;10.078;2024-02-14T11:57:55;100986.53;;;11.07;87.76
15487;BME280;7845;53.698;10.078;2024-02-14T12:00:20;100989.88;;;11.09;88.60
15487;BME280;7845;53.698;10.078;2024-02-14T12:02:46;100993.66;;;11.18;88.07
15487;BME280;7845;53.698;10.078;2024-02-14T12:05:11;100985.78;;;11.18;87.92
15487;BME280;7845;53.698;10.078;2024-02-14T12:07:39;100990.19;;;11.17;88.39
15487;BME280;7845;53.698;10.078;2024-02-14T12:10:04;100998.91;;;11.18;87.85
15487;BME280;7845;53.698;10.078;2024-02-14T12:12:31;100991.56;;;11.10;88.58
15487;BME280;7845;53.698;10.078;2024-02-14T12:14:57;100995.56;;;11.03;89.26
15487;BME280;7845;53.698;10.078;2024-02-14T12:17:24;100992.00;;;11.04;89.18
15487;BME280;7845;53.698;10.078;2024-02-14T12:19:49;100992.19;;;11.01;89.21
15487;BME280;7845;53.698;10.078;2024-02-14T12:22:16;100993.78;;;11.03;89.86
15487;BME280;7845;53.698;10.078;2024-02-14T12:24:45;100998.19;;;11.03;89.51
15487;BME280;7845;53.698;10.078;2024-02-14T12:27:10;100999.53;;;11.08;90.08
15487;BME280;7845;53.698;10.078;2024-02-14T12:29:36;101001.66;;;11.16;90.12
15487;BME280;7845;53.698;10.078;2024-02-14T12:32:05;100999.19;;;11.26;89.78
15487;BME280;7845;53.698;10.078;2024-02-14T12:34:32;101008.25;;;11.34;89.03
15487;BME280;7845;53.698;10.078;2024-02-14T12:36:57;100962.75;;;11.08;89.30
15487;BME280;7845;53.698;10.078;2024-02-14T12:39:22;101005.28;;;11.39;90.44
15487;BME280;7845;53.698;10.078;2024-02-14T12:41:48;101004.72;;;11.46;89.50
15487;BME280;7845;53.698;10.078;2024-02-14T12:44:13;101008.41;;;11.56;89.71
15487;BME280;7845;53.698;10.078;2024-02-14T12:46:39;101004.25;;;11.65;89.35
15487;BME280;7845;53.698;10.078;2024-02-14T12:49:04;101012.25;;;11.76;89.99
15487;BME280;7845;53.698;10.078;2024-02-14T12:51:29;101010.63;;;11.86;88.85